Alps, New York
Current Conditions -  °F | °C
As of 4:51 PM on Saturday 20 Dec 2014 (Local Time) from KALB Reporting Station
Broken Clouds Broken Clouds  
Wind Chill: 29°   Ceiling: 3200
Heat Index: 29°   Visibility: 10mi
Dew Point: 18°   Wind: 3mph
Humidity: 64%   Direction: 340°NNW
Pressure: 30.29"   Gusts: NA
Location:  42.6497°N, 73.5273°W
Report Text: KALB 202151Z 34003KT 10SM BKN032 BKN070 BKN250 M02/M08 A3029 RMK AO2 SLP260 T10171078
Loading
Personal Weather Stations






























Interactive Weather Map New forecast layout! Learn more

10-Day Weather Forecast

Advertisements
Track Severe Weather on mobile